createdAt,value
2023-05-24T00:00:25.314Z,21.45
2023-05-24T00:02:52.600Z,22.02
2023-05-24T00:05:19.873Z,21.60
2023-05-24T00:07:47.542Z,22.33
2023-05-24T00:10:15.092Z,21.15
2023-05-24T00:12:42.337Z,21.10
2023-05-24T00:15:09.796Z,20.95
2023-05-24T00:17:41.281Z,21.63
2023-05-24T00:20:11.343Z,20.67
2023-05-24T00:22:38.883Z,20.55
2023-05-24T00:25:06.999Z,20.60
2023-05-24T00:27:34.645Z,20.48
2023-05-24T00:30:02.213Z,18.92
2023-05-24T00:32:30.696Z,23.25
2023-05-24T00:34:57.895Z,21.45
2023-05-24T00:37:26.472Z,21.85
2023-05-24T00:39:53.907Z,22.30
2023-05-24T00:42:21.290Z,22.30
2023-05-24T00:44:48.715Z,23.45
2023-05-24T00:47:16.450Z,22.85
2023-05-24T00:49:43.647Z,23.83
2023-05-24T00:52:10.796Z,20.85
2023-05-24T00:54:40.742Z,22.77
2023-05-24T00:57:08.048Z,22.17
2023-05-24T00:59:35.478Z,22.05
2023-05-24T01:02:05.315Z,21.25
2023-05-24T01:04:33.347Z,21.20
2023-05-24T01:07:21.610Z,21.80
2023-05-24T01:10:10.748Z,21.70
2023-05-24T01:13:04.596Z,22.42
2023-05-24T01:15:43.766Z,23.98
2023-05-24T01:18:17.743Z,22.27
2023-05-24T01:20:45.529Z,21.85
2023-05-24T01:23:32.335Z,21.23
2023-05-24T01:26:09.412Z,21.48
2023-05-24T01:28:36.932Z,21.17
2023-05-24T01:31:04.512Z,20.92
2023-05-24T01:33:32.738Z,20.02
2023-05-24T01:36:00.018Z,19.95
2023-05-24T01:38:27.362Z,19.98
2023-05-24T01:40:59.466Z,18.45
2023-05-24T01:43:40.416Z,20.00
2023-05-24T01:46:23.117Z,17.42
2023-05-24T01:49:21.461Z,19.50
2023-05-24T01:51:58.708Z,17.35
2023-05-24T01:54:26.764Z,18.10
2023-05-24T01:56:55.496Z,19.38
2023-05-24T01:59:23.014Z,18.23
2023-05-24T02:01:50.431Z,19.52
2023-05-24T02:04:18.541Z,17.98
2023-05-24T02:06:46.168Z,18.50
2023-05-24T02:09:13.707Z,18.45
2023-05-24T02:11:40.957Z,19.63
2023-05-24T02:14:08.174Z,19.02
2023-05-24T02:16:42.649Z,19.85
2023-05-24T02:19:10.373Z,21.73
2023-05-24T02:21:38.591Z,20.40
2023-05-24T02:24:07.187Z,19.55
2023-05-24T02:26:34.427Z,19.83
2023-05-24T02:29:01.878Z,20.20
2023-05-24T02:31:29.752Z,19.80
2023-05-24T02:33:57.874Z,20.48
2023-05-24T02:36:25.043Z,20.88
2023-05-24T02:38:52.302Z,19.42
2023-05-24T02:41:19.803Z,21.42
2023-05-24T02:43:47.604Z,19.88
2023-05-24T02:46:15.188Z,18.48
2023-05-24T02:48:42.689Z,20.00
2023-05-24T02:51:10.288Z,21.55
2023-05-24T02:53:38.032Z,24.80
2023-05-24T02:56:05.253Z,25.10
2023-05-24T02:58:33.541Z,26.33
2023-05-24T03:01:01.764Z,26.23
2023-05-24T03:03:30.907Z,27.48
2023-05-24T03:05:58.597Z,27.67
2023-05-24T03:08:25.761Z,30.27
2023-05-24T03:10:53.937Z,32.90
2023-05-24T03:13:22.639Z,32.80
2023-05-24T03:15:50.074Z,34.97
2023-05-24T03:18:17.421Z,31.80
2023-05-24T03:20:45.743Z,34.03
2023-05-24T03:23:15.070Z,34.40
2023-05-24T03:25:42.814Z,33.10
2023-05-24T03:28:10.607Z,32.72
2023-05-24T03:30:37.894Z,35.10
2023-05-24T03:33:05.582Z,33.92
2023-05-24T03:35:33.509Z,36.13
2023-05-24T03:38:00.770Z,34.22
2023-05-24T03:40:32.572Z,35.25
2023-05-24T03:43:07.298Z,36.22
2023-05-24T03:45:43.828Z,34.80
2023-05-24T03:48:11.382Z,35.00
2023-05-24T03:50:38.923Z,37.08
2023-05-24T03:53:06.266Z,37.03
2023-05-24T03:55:33.420Z,35.88
2023-05-24T03:58:00.585Z,37.55
2023-05-24T04:00:28.809Z,33.53
2023-05-24T04:02:56.322Z,36.50
2023-05-24T04:05:29.741Z,36.28
2023-05-24T04:07:56.983Z,42.33
2023-05-24T04:10:24.298Z,43.50
2023-05-24T04:12:51.852Z,41.83
2023-05-24T04:15:18.975Z,37.70
2023-05-24T04:17:46.737Z,40.15
2023-05-24T04:20:14.391Z,41.80
2023-05-24T04:22:42.148Z,37.13
2023-05-24T04:25:10.222Z,31.55
2023-05-24T04:27:37.726Z,40.35
2023-05-24T04:30:05.773Z,38.45
2023-05-24T04:32:33.891Z,35.60
2023-05-24T04:35:02.854Z,37.92
2023-05-24T04:37:31.837Z,38.40
2023-05-24T04:39:59.115Z,37.17
2023-05-24T04:42:27.489Z,38.80
2023-05-24T04:44:54.606Z,38.63
2023-05-24T04:47:21.839Z,34.08
2023-05-24T04:49:49.743Z,34.15
2023-05-24T04:52:17.484Z,31.73
2023-05-24T04:54:44.728Z,30.52
2023-05-24T04:57:11.912Z,24.77
2023-05-24T04:59:39.262Z,31.60
2023-05-24T05:02:06.732Z,32.58
2023-05-24T05:04:33.944Z,33.85
2023-05-24T05:07:01.119Z,31.67
2023-05-24T05:09:28.459Z,31.95
2023-05-24T05:11:55.751Z,30.27
2023-05-24T05:14:23.316Z,30.48
2023-05-24T05:16:50.705Z,27.60
2023-05-24T05:19:18.048Z,29.55
2023-05-24T05:21:45.589Z,28.73
2023-05-24T05:24:12.808Z,26.88
2023-05-24T05:26:41.809Z,26.90
2023-05-24T05:29:09.141Z,25.13
2023-05-24T05:31:37.087Z,26.35
2023-05-24T05:34:04.315Z,27.35
2023-05-24T05:36:32.424Z,29.02
2023-05-24T05:38:59.758Z,28.58
2023-05-24T05:41:26.975Z,29.95
2023-05-24T05:43:54.093Z,26.88
2023-05-24T05:46:22.337Z,26.50
2023-05-24T05:48:50.705Z,24.35
2023-05-24T05:51:17.843Z,24.83
2023-05-24T05:53:45.053Z,24.02
2023-05-24T05:56:12.397Z,20.65
2023-05-24T05:58:39.628Z,21.00
2023-05-24T06:01:06.916Z,21.83
2023-05-24T06:03:34.426Z,19.33
2023-05-24T06:06:01.871Z,19.30
2023-05-24T06:08:34.941Z,22.45
2023-05-24T06:11:02.484Z,21.05
2023-05-24T06:13:31.383Z,18.77
2023-05-24T06:15:59.101Z,17.50
2023-05-24T06:18:27.753Z,16.42
2023-05-24T06:20:55.166Z,14.52
2023-05-24T06:23:23.492Z,16.05
2023-05-24T06:25:50.863Z,15.60
2023-05-24T06:28:18.184Z,14.80
2023-05-24T06:30:45.905Z,15.90
2023-05-24T06:33:13.391Z,15.55
2023-05-24T06:35:40.813Z,12.23
2023-05-24T06:38:09.664Z,14.25
2023-05-24T06:40:37.134Z,15.30
2023-05-24T06:43:04.907Z,15.30
2023-05-24T06:45:34.348Z,15.32
2023-05-24T06:48:01.775Z,18.17
2023-05-24T06:50:29.136Z,14.75
2023-05-24T06:52:56.606Z,13.25
2023-05-24T06:55:23.784Z,12.77
2023-05-24T06:57:51.221Z,11.63
2023-05-24T07:00:18.875Z,11.23
2023-05-24T07:02:46.170Z,12.80
2023-05-24T07:05:13.627Z,11.75
2023-05-24T07:07:42.502Z,11.93
2023-05-24T07:10:10.896Z,12.45
2023-05-24T07:12:38.410Z,15.98
2023-05-24T07:15:07.236Z,13.93
2023-05-24T07:17:34.975Z,16.92
2023-05-24T07:20:02.604Z,17.50
2023-05-24T07:22:31.705Z,16.08
2023-05-24T07:24:59.049Z,15.07
2023-05-24T07:27:26.482Z,15.77
2023-05-24T07:29:54.258Z,14.43
2023-05-24T07:32:21.696Z,14.15
2023-05-24T07:34:49.022Z,14.02
2023-05-24T07:37:17.626Z,16.13
2023-05-24T07:39:45.002Z,14.27
2023-05-24T07:42:12.319Z,14.52
2023-05-24T07:44:40.046Z,14.07
2023-05-24T07:47:07.260Z,12.98
2023-05-24T07:49:34.630Z,10.48
2023-05-24T07:52:04.079Z,10.15
2023-05-24T07:54:32.010Z,7.95
2023-05-24T07:56:59.686Z,10.68
2023-05-24T07:59:27.263Z,10.27
2023-05-24T08:01:54.473Z,7.55
2023-05-24T08:04:22.011Z,5.88
2023-05-24T08:06:49.386Z,8.30
2023-05-24T08:09:16.752Z,6.57
2023-05-24T08:11:44.277Z,7.47
2023-05-24T08:14:11.863Z,8.23
2023-05-24T08:16:39.551Z,9.10
2023-05-24T08:19:07.263Z,8.07
2023-05-24T08:21:34.750Z,7.20
2023-05-24T08:24:02.042Z,6.40
2023-05-24T08:26:29.418Z,8.13
2023-05-24T08:28:56.726Z,7.38
2023-05-24T08:31:24.579Z,8.05
2023-05-24T08:33:52.910Z,7.40
2023-05-24T08:36:20.144Z,7.40
2023-05-24T08:38:47.666Z,8.25
2023-05-24T08:41:15.088Z,6.72
2023-05-24T08:43:42.417Z,6.70
2023-05-24T08:46:09.595Z,6.43
2023-05-24T08:48:46.113Z,6.40
2023-05-24T08:51:17.019Z,5.28
2023-05-24T08:53:48.719Z,4.53
2023-05-24T08:56:17.867Z,3.88
2023-05-24T08:58:47.377Z,3.50
2023-05-24T09:01:15.442Z,4.25
2023-05-24T09:03:43.816Z,4.20
2023-05-24T09:06:12.259Z,4.03
2023-05-24T09:08:42.396Z,4.18
2023-05-24T09:11:11.651Z,4.93
2023-05-24T09:13:39.053Z,5.20
2023-05-24T09:16:06.567Z,5.47
2023-05-24T09:18:34.059Z,5.50
2023-05-24T09:21:01.422Z,5.50
2023-05-24T09:23:29.025Z,4.70
2023-05-24T09:25:57.064Z,5.50
2023-05-24T09:28:25.179Z,6.00
2023-05-24T09:31:00.327Z,5.45
2023-05-24T09:33:32.736Z,4.70
2023-05-24T09:36:01.448Z,4.95
2023-05-24T09:38:29.824Z,5.10
2023-05-24T09:41:07.563Z,5.53
2023-05-24T09:43:36.353Z,5.78
2023-05-24T09:46:04.792Z,5.47
2023-05-24T09:48:32.459Z,5.75
2023-05-24T09:51:04.454Z,5.20
2023-05-24T09:53:34.008Z,5.20
2023-05-24T09:56:04.035Z,5.70
2023-05-24T09:58:35.013Z,5.00
2023-05-24T10:01:11.087Z,5.55
2023-05-24T10:03:38.657Z,6.22
2023-05-24T10:06:08.424Z,5.43
2023-05-24T10:08:36.797Z,5.25
2023-05-24T10:11:04.967Z,5.55
2023-05-24T10:13:36.616Z,5.65
2023-05-24T10:16:04.485Z,5.18
2023-05-24T10:18:32.052Z,5.80
2023-05-24T10:21:01.030Z,4.15
2023-05-24T10:23:32.767Z,3.85
2023-05-24T10:26:04.136Z,4.90
2023-05-24T10:28:31.392Z,6.13
2023-05-24T10:31:04.941Z,6.25
2023-05-24T10:33:32.877Z,12.15
2023-05-24T10:36:00.126Z,17.90
2023-05-24T10:38:27.592Z,14.00
2023-05-24T10:40:54.951Z,12.75
2023-05-24T10:43:22.597Z,11.20
2023-05-24T10:45:50.774Z,14.15
2023-05-24T10:48:29.288Z,15.15
2023-05-24T10:50:57.524Z,12.98
2023-05-24T10:53:27.402Z,15.70
2023-05-24T10:56:04.183Z,13.82
2023-05-24T10:58:35.488Z,10.98
2023-05-24T11:01:03.569Z,10.48
2023-05-24T11:03:34.880Z,8.95
2023-05-24T11:06:03.194Z,11.40
2023-05-24T11:08:35.671Z,9.85
2023-05-24T11:11:24.416Z,12.52
2023-05-24T11:13:56.916Z,12.05
2023-05-24T11:16:38.812Z,8.15
2023-05-24T11:19:20.660Z,8.27
2023-05-24T11:21:49.238Z,9.13
2023-05-24T11:24:18.697Z,9.82
2023-05-24T11:26:46.470Z,13.48
2023-05-24T11:29:17.781Z,15.13
2023-05-24T11:31:50.807Z,16.98
2023-05-24T11:34:21.712Z,16.30
2023-05-24T11:36:49.105Z,12.10
2023-05-24T11:39:16.497Z,12.60
2023-05-24T11:41:44.125Z,14.43
2023-05-24T11:44:12.395Z,10.85
2023-05-24T11:46:39.959Z,9.45
2023-05-24T11:49:07.658Z,11.60
2023-05-24T11:51:35.894Z,10.07
2023-05-24T11:54:03.196Z,8.93
2023-05-24T11:56:33.211Z,10.32
2023-05-24T11:59:38.204Z,8.13
2023-05-24T12:02:06.236Z,7.80
2023-05-24T12:04:34.809Z,8.15
2023-05-24T12:07:02.380Z,7.25
2023-05-24T12:09:29.851Z,6.20
2023-05-24T12:11:58.686Z,6.53
2023-05-24T12:14:33.167Z,6.78
2023-05-24T12:17:01.394Z,6.80
2023-05-24T12:19:36.036Z,6.45
2023-05-24T12:22:05.909Z,6.47
2023-05-24T12:24:33.515Z,5.55
2023-05-24T12:27:02.272Z,7.07
2023-05-24T12:29:36.841Z,9.30
2023-05-24T12:32:04.491Z,7.90
2023-05-24T12:34:32.238Z,7.72
2023-05-24T12:36:59.927Z,8.75
2023-05-24T12:39:34.253Z,8.63
2023-05-24T12:44:31.474Z,8.95
2023-05-24T12:46:59.159Z,8.70
2023-05-24T12:49:27.043Z,9.23
2023-05-24T12:51:55.549Z,9.00
2023-05-24T12:54:24.145Z,9.88
2023-05-24T12:56:54.154Z,11.35
2023-05-24T12:59:22.992Z,12.45
2023-05-24T13:01:53.508Z,8.02
2023-05-24T13:04:22.204Z,5.65
2023-05-24T13:06:49.715Z,5.43
2023-05-24T13:09:21.835Z,6.35
2023-05-24T13:11:49.711Z,5.88
2023-05-24T13:14:18.441Z,5.60
2023-05-24T13:16:46.143Z,5.95
2023-05-24T13:19:13.798Z,5.93
2023-05-24T13:21:41.031Z,6.53
2023-05-24T13:24:08.761Z,5.78
2023-05-24T13:26:38.196Z,6.30
2023-05-24T13:31:40.865Z,5.72
2023-05-24T13:34:09.293Z,5.72
2023-05-24T13:36:38.396Z,5.70
2023-05-24T13:41:37.910Z,5.93
2023-05-24T13:44:05.336Z,5.25
2023-05-24T13:46:32.976Z,6.10
2023-05-24T13:49:00.339Z,5.13
2023-05-24T13:51:30.784Z,5.43
2023-05-24T13:53:58.096Z,5.47
2023-05-24T13:56:26.064Z,5.57
2023-05-24T13:58:53.686Z,7.00
2023-05-24T14:01:21.212Z,6.90
2023-05-24T14:03:48.465Z,5.85
2023-05-24T14:06:15.809Z,6.50
2023-05-24T14:08:43.046Z,6.35
2023-05-24T14:11:12.080Z,5.63
2023-05-24T14:16:09.778Z,6.13
2023-05-24T14:18:37.986Z,5.10
2023-05-24T14:21:05.274Z,6.18
2023-05-24T14:23:33.108Z,6.57
2023-05-24T14:26:01.016Z,5.50
2023-05-24T14:28:28.718Z,5.93
2023-05-24T14:30:56.313Z,5.70
2023-05-24T14:33:23.752Z,6.28
2023-05-24T14:35:51.796Z,6.40
2023-05-24T14:38:19.448Z,6.82
2023-05-24T14:40:48.371Z,8.18
2023-05-24T14:43:16.317Z,7.97
2023-05-24T14:45:43.910Z,6.68
2023-05-24T14:48:12.329Z,6.40
2023-05-24T14:50:40.434Z,5.70
2023-05-24T14:53:11.959Z,6.53
2023-05-24T14:55:41.775Z,5.18
2023-05-24T14:58:09.611Z,5.45
2023-05-24T15:00:37.320Z,4.85
2023-05-24T15:03:06.207Z,4.97
2023-05-24T15:05:35.059Z,5.40
2023-05-24T15:08:02.468Z,5.60
2023-05-24T15:10:29.912Z,4.75
2023-05-24T15:12:57.283Z,4.65
2023-05-24T15:15:24.874Z,4.55
2023-05-24T15:17:52.659Z,4.85
2023-05-24T15:20:20.176Z,5.20
2023-05-24T15:22:47.544Z,4.63
2023-05-24T15:25:14.945Z,5.47
2023-05-24T15:27:42.324Z,6.40
2023-05-24T15:30:09.800Z,5.80
2023-05-24T15:32:37.182Z,5.75
2023-05-24T15:35:04.698Z,5.90
2023-05-24T15:37:32.396Z,5.82
2023-05-24T15:39:59.727Z,6.18
2023-05-24T15:42:27.114Z,5.90
2023-05-24T15:44:54.689Z,5.45
2023-05-24T15:47:22.495Z,6.13
2023-05-24T15:49:50.150Z,6.03
2023-05-24T15:52:18.068Z,5.25
2023-05-24T15:54:46.125Z,6.30
2023-05-24T15:57:14.203Z,5.22
2023-05-24T15:59:41.474Z,5.70
2023-05-24T16:02:08.827Z,5.55
2023-05-24T16:04:36.875Z,6.30
2023-05-24T16:07:04.729Z,6.93
2023-05-24T16:09:32.217Z,7.63
2023-05-24T16:12:00.909Z,6.57
2023-05-24T16:14:29.985Z,5.78
2023-05-24T16:17:00.421Z,5.65
2023-05-24T16:19:30.511Z,20.85
2023-05-24T16:21:58.276Z,11.32
2023-05-24T16:24:25.822Z,6.72
2023-05-24T16:26:52.985Z,6.38
2023-05-24T16:29:21.296Z,6.03
2023-05-24T16:31:48.586Z,6.40
2023-05-24T16:34:16.546Z,7.25
2023-05-24T16:36:45.965Z,6.78
2023-05-24T16:39:13.572Z,6.10
2023-05-24T16:41:41.538Z,7.20
2023-05-24T16:44:08.844Z,6.72
2023-05-24T16:46:36.952Z,7.22
2023-05-24T16:49:04.317Z,6.47
2023-05-24T16:51:32.019Z,6.57
2023-05-24T16:53:59.467Z,7.97
2023-05-24T16:56:27.368Z,8.05
2023-05-24T16:58:54.537Z,7.15
2023-05-24T17:01:23.948Z,7.32
2023-05-24T17:03:51.171Z,10.13
2023-05-24T17:06:18.534Z,7.72
2023-05-24T17:08:45.681Z,6.95
2023-05-24T17:11:14.792Z,7.72
2023-05-24T17:13:41.973Z,6.70
2023-05-24T17:16:10.914Z,6.38
2023-05-24T17:18:38.476Z,6.95
2023-05-24T17:21:05.938Z,6.53
2023-05-24T17:23:34.059Z,7.30
2023-05-24T17:26:02.636Z,7.18
2023-05-24T17:28:30.580Z,6.75
2023-05-24T17:30:58.410Z,6.70
2023-05-24T17:33:28.297Z,6.40
2023-05-24T17:36:02.781Z,6.43
2023-05-24T17:38:33.249Z,7.38
2023-05-24T17:41:01.103Z,7.00
2023-05-24T17:43:29.239Z,7.35
2023-05-24T17:46:04.036Z,7.10
2023-05-24T17:48:38.913Z,6.88
2023-05-24T17:51:07.793Z,6.50
2023-05-24T17:53:36.394Z,7.32
2023-05-24T17:56:04.183Z,8.02
2023-05-24T17:58:36.396Z,7.68
2023-05-24T18:01:08.491Z,7.57
2023-05-24T18:03:37.515Z,7.00
2023-05-24T18:06:06.772Z,7.63
2023-05-24T18:08:35.484Z,7.28
2023-05-24T18:11:08.689Z,6.82
2023-05-24T18:13:42.985Z,7.43
2023-05-24T18:16:10.803Z,7.28
2023-05-24T18:18:38.741Z,7.95
2023-05-24T18:21:06.374Z,7.20
2023-05-24T18:23:37.606Z,8.20
2023-05-24T18:26:09.371Z,7.90
2023-05-24T18:28:37.671Z,6.93
2023-05-24T18:31:10.411Z,7.78
2023-05-24T18:33:38.506Z,7.10
2023-05-24T18:36:08.159Z,8.05
2023-05-24T18:38:36.157Z,8.07
2023-05-24T18:41:05.951Z,8.15
2023-05-24T18:43:33.837Z,7.28
2023-05-24T18:46:01.644Z,8.52
2023-05-24T18:48:29.237Z,9.70
2023-05-24T18:50:56.723Z,8.65
2023-05-24T18:53:24.056Z,8.48
2023-05-24T18:55:51.514Z,7.65
2023-05-24T18:58:18.885Z,8.00
2023-05-24T19:00:46.203Z,9.10
2023-05-24T19:03:13.781Z,8.48
2023-05-24T19:05:43.888Z,7.75
2023-05-24T19:08:12.086Z,8.73
2023-05-24T19:10:39.270Z,8.13
2023-05-24T19:13:06.862Z,8.50
2023-05-24T19:15:37.529Z,8.43
2023-05-24T19:18:06.080Z,8.13
2023-05-24T19:20:33.679Z,7.55
2023-05-24T19:23:01.506Z,8.10
2023-05-24T19:25:29.009Z,8.10
2023-05-24T19:27:59.778Z,8.10
2023-05-24T19:30:28.117Z,8.27
2023-05-24T19:32:55.595Z,7.95
2023-05-24T19:35:22.919Z,8.20
2023-05-24T19:37:50.813Z,7.78
2023-05-24T19:40:18.166Z,7.15
2023-05-24T19:42:45.759Z,7.18
2023-05-24T19:45:13.556Z,7.65
2023-05-24T19:47:41.409Z,7.72
2023-05-24T19:50:09.189Z,7.47
2023-05-24T19:52:36.865Z,7.20
2023-05-24T19:55:04.583Z,6.95
2023-05-24T19:57:31.920Z,6.97
2023-05-24T19:59:59.070Z,6.90
2023-05-24T20:02:26.787Z,7.93
2023-05-24T20:04:54.610Z,7.60
2023-05-24T20:07:22.150Z,7.00
2023-05-24T20:09:49.977Z,7.20
2023-05-24T20:12:17.160Z,7.88
2023-05-24T20:14:44.907Z,7.40
2023-05-24T20:17:12.158Z,7.35
2023-05-24T20:19:39.367Z,7.75
2023-05-24T20:22:06.702Z,7.78
2023-05-24T20:24:34.099Z,7.70
2023-05-24T20:27:02.388Z,7.22
2023-05-24T20:29:30.611Z,7.53
2023-05-24T20:31:57.887Z,7.65
2023-05-24T20:34:25.264Z,7.97
2023-05-24T20:36:52.752Z,8.30
2023-05-24T20:39:19.946Z,8.93
2023-05-24T20:41:47.454Z,8.32
2023-05-24T20:44:14.857Z,7.80
2023-05-24T20:46:42.663Z,8.35
2023-05-24T20:49:09.857Z,8.27
2023-05-24T20:51:37.092Z,8.27
2023-05-24T20:54:04.786Z,9.05
2023-05-24T20:56:33.110Z,8.70
2023-05-24T20:59:02.212Z,8.68
2023-05-24T21:01:29.767Z,8.98
2023-05-24T21:03:57.082Z,9.10
2023-05-24T21:06:25.733Z,9.45
2023-05-24T21:08:52.884Z,10.10
2023-05-24T21:11:20.159Z,9.48
2023-05-24T21:13:47.444Z,9.73
2023-05-24T21:16:15.008Z,8.75
2023-05-24T21:18:42.331Z,8.27
2023-05-24T21:21:11.495Z,9.20
2023-05-24T21:23:38.992Z,8.88
2023-05-24T21:26:06.323Z,10.30
2023-05-24T21:28:33.818Z,10.25
2023-05-24T21:31:01.085Z,9.77
2023-05-24T21:33:28.612Z,9.10
2023-05-24T21:35:56.152Z,9.65
2023-05-24T21:38:24.374Z,9.50
2023-05-24T21:40:51.801Z,9.35
2023-05-24T21:43:19.378Z,10.63
2023-05-24T21:45:47.036Z,10.35
2023-05-24T21:48:14.177Z,10.82
2023-05-24T21:50:41.729Z,11.60
2023-05-24T21:53:09.254Z,10.70
2023-05-24T21:55:36.983Z,11.35
2023-05-24T21:58:04.176Z,12.00
2023-05-24T22:00:31.965Z,12.00
2023-05-24T22:02:59.188Z,12.10
2023-05-24T22:05:27.977Z,10.68
2023-05-24T22:07:55.738Z,11.43
2023-05-24T22:10:22.993Z,12.38
2023-05-24T22:12:50.642Z,11.25
2023-05-24T22:15:17.846Z,11.45
2023-05-24T22:17:45.394Z,11.15
2023-05-24T22:20:13.374Z,11.13
2023-05-24T22:22:48.825Z,9.52
2023-05-24T22:25:20.761Z,9.85
2023-05-24T22:27:51.340Z,10.82
2023-05-24T22:30:19.613Z,9.98
2023-05-24T22:32:47.060Z,9.40
2023-05-24T22:35:14.561Z,10.18
2023-05-24T22:37:42.311Z,10.32
2023-05-24T22:40:09.742Z,9.77
2023-05-24T22:42:37.719Z,9.90
2023-05-24T22:45:05.517Z,10.27
2023-05-24T22:47:33.486Z,10.25
2023-05-24T22:50:02.211Z,9.35
2023-05-24T22:52:30.462Z,9.02
2023-05-24T22:54:57.786Z,9.30
2023-05-24T22:57:24.995Z,9.05
2023-05-24T22:59:52.192Z,9.07
2023-05-24T23:02:19.540Z,8.75
2023-05-24T23:04:47.561Z,9.27
2023-05-24T23:07:15.572Z,9.80
2023-05-24T23:09:43.225Z,9.60
2023-05-24T23:12:11.097Z,9.20
2023-05-24T23:14:39.502Z,8.70
2023-05-24T23:17:13.459Z,8.82
2023-05-24T23:19:45.199Z,8.90
2023-05-24T23:22:14.028Z,9.10
2023-05-24T23:24:42.689Z,8.70
2023-05-24T23:27:10.211Z,9.20
2023-05-24T23:29:40.641Z,9.45
2023-05-24T23:32:08.294Z,9.38
2023-05-24T23:34:36.330Z,8.20
2023-05-24T23:37:04.474Z,8.27
2023-05-24T23:39:31.942Z,7.95
2023-05-24T23:41:59.245Z,8.73
2023-05-24T23:44:26.586Z,8.90
2023-05-24T23:46:53.864Z,7.93
2023-05-24T23:49:22.476Z,8.13
2023-05-24T23:51:50.152Z,8.48
2023-05-24T23:54:19.273Z,7.63
2023-05-24T23:56:46.921Z,9.00
2023-05-24T23:59:16.001Z,7.88
